Macomb, IL

12:37 PM CDT on July 20, 2017 (GMT -0500)
Macomb Municipal

Weather History for KMQB - April, 2013

Change the Weather History Date:

Wednesday, April 24, 2013

  Actual Average (KBRL) Record (KBRL)
Temperature  
Mean Temperature 44 °F -  
Max Temperature 53 °F 68 °F 85 °F (1954)
Min Temperature 36 °F 45 °F 22 °F (1956)
Degree Days  
Heating Degree Days 21    
Moisture  
Dew Point 35 °F    
Average Humidity 73    
Maximum Humidity 100    
Minimum Humidity 42    
Precipitation  
Precipitation 0.03 in - - ()
Sea Level Pressure  
Sea Level Pressure 30.13 in    
Wind  
Wind Speed 12 mph (WNW)    
Max Wind Speed 20 mph    
Max Gust Speed 22 mph    
Visibility 10 miles    
Events Rain    
Averages and records for this station are not official NWS values.
T = Trace of Precipitation, MM = Missing Value Source: NWS Daily Summary

Daily Weather History Graph

Daily Weather History Graph

Search for Another Location

Airport or City:

Trip Planner

Search our weather history database for the weather conditions in past years. The results will help you decide how hot, cold, wet, or windy it might be!

Date:

Astronomy

Apr. 24, 2013 Rise Set
Actual Time 6:10 AM CDT 7:51 PM CDT
Civil Twilight 5:41 AM CDT 8:20 PM CDT
Nautical Twilight 5:06 AM CDT 8:55 PM CDT
Astronomical Twilight 4:29 AM CDT 9:33 PM CDT
Moon 6:54 PM CDT (4/24) 5:14 AM CDT (4/24)
Length of Visible Light 14h 38m
Length of Day
13h 40m
Waxing Gibbous, 98% of the Moon is Illuminated
Apr 24
Waxing Gibbous
Apr 25
Full
May 2
Last Quarter
May 9
New
May 17
First Quarter

Hourly Weather History & Observations

Time (CDT) Temp. Windchill Dew Point Humidity Pressure Visibility Wind Dir Wind Speed Gust Speed Precip Events Conditions
12:15 AM 39.2 °F 30.8 °F 39.2 °F 100% 30.05 in 10.0 mi NNW 15.0 mph 20.7 mph N/A Rain Light Rain
12:35 AM 39.0 °F 30.6 °F 38.8 °F 99% 30.06 in 10.0 mi NNW 15.0 mph - 0.01 in   Light Drizzle
12:55 AM 38.8 °F 31.2 °F 38.7 °F 99% 30.07 in 10.0 mi North 12.7 mph - 0.01 in Rain Light Rain
1:15 AM 38.7 °F 31.4 °F 38.5 °F 99% 30.06 in 10.0 mi NNW 11.5 mph - N/A Rain Light Rain
1:35 AM 38.7 °F 30.1 °F 38.5 °F 99% 30.04 in 10.0 mi North 15.0 mph 18.4 mph N/A Rain Light Rain
1:55 AM 38.3 °F 30.5 °F 38.1 °F 99% 30.04 in 10.0 mi North 12.7 mph - N/A Rain Light Rain
2:15 AM 38.3 °F 30.9 °F 38.1 °F 99% 30.04 in 10.0 mi North 11.5 mph - N/A Rain Light Rain
2:35 AM 38.3 °F 31.9 °F 38.3 °F 100% 30.05 in 10.0 mi North 9.2 mph - N/A Rain Light Rain
2:55 AM 38.5 °F 32.7 °F 38.3 °F 99% 30.05 in 10.0 mi NNW 8.1 mph - N/A   Overcast
3:15 AM 38.3 °F 30.9 °F 38.3 °F 100% 30.06 in 10.0 mi NNW 11.5 mph - N/A Rain Light Rain
3:35 AM 37.8 °F 30.7 °F 37.6 °F 99% 30.07 in 7.0 mi NNW 10.4 mph - 0.01 in Rain Light Rain
3:55 AM 37.8 °F 34.2 °F 37.6 °F 99% 30.07 in 7.0 mi NNW 4.6 mph - 0.02 in Rain Light Rain
4:15 AM 37.8 °F 34.2 °F 37.6 °F 99% 30.07 in 7.0 mi North 4.6 mph - N/A   Light Drizzle
4:35 AM 37.8 °F - 37.6 °F 99% 30.07 in 10.0 mi Calm Calm - N/A   Overcast
4:55 AM 37.9 °F 34.4 °F 37.8 °F 99% 30.08 in 10.0 mi West 4.6 mph - N/A   Overcast
5:15 AM 37.9 °F 32.1 °F 37.8 °F 99% 30.07 in 10.0 mi WNW 8.1 mph - N/A   Overcast
5:35 AM 37.4 °F 30.3 °F 37.0 °F 99% 30.08 in 10.0 mi NW 10.4 mph - N/A   Overcast
5:55 AM 37.0 °F 28.9 °F 36.9 °F 99% 30.08 in 10.0 mi NW 12.7 mph - N/A   Overcast
6:15 AM 36.5 °F 28.2 °F 36.5 °F 100% 30.08 in 10.0 mi NW 12.7 mph - N/A   Overcast
6:35 AM 36.5 °F 28.7 °F 36.5 °F 100% 30.09 in 10.0 mi NW 11.5 mph - N/A   Overcast
6:55 AM 36.3 °F 28.0 °F 36.3 °F 100% 30.10 in 10.0 mi WNW 12.7 mph - N/A   Overcast
7:15 AM 36.3 °F 28.0 °F 36.3 °F 100% 30.10 in 10.0 mi NW 12.7 mph - N/A   Overcast
7:35 AM 37.2 °F 28.7 °F 36.9 °F 99% 30.10 in 10.0 mi NW 13.8 mph - N/A   Overcast
7:55 AM 37.6 °F 28.4 °F 37.4 °F 99% 30.12 in 10.0 mi WNW 16.1 mph 20.7 mph N/A   Overcast
8:15 AM 37.9 °F 29.2 °F 36.7 °F 95% 30.13 in 10.0 mi WNW 15.0 mph 20.7 mph N/A   Mostly Cloudy
8:35 AM 38.3 °F 29.0 °F 33.4 °F 83% 30.14 in 10.0 mi NW 17.3 mph - N/A   Mostly Cloudy
8:55 AM 38.8 °F 30.4 °F 33.3 °F 80% 30.14 in 10.0 mi WNW 15.0 mph - N/A   Overcast
9:15 AM 39.9 °F 30.8 °F 34.0 °F 79% 30.15 in 10.0 mi WNW 18.4 mph - N/A   Overcast
9:35 AM 41.4 °F 33.3 °F 34.9 °F 78% 30.15 in 10.0 mi NW 16.1 mph - N/A   Scattered Clouds
9:55 AM 42.1 °F 34.5 °F 34.7 °F 75% 30.16 in 10.0 mi NW 15.0 mph 20.7 mph N/A   Clear
10:15 AM 43.0 °F 36.0 °F 34.0 °F 71% 30.16 in 10.0 mi NW 13.8 mph 21.9 mph N/A   Clear
10:35 AM 43.7 °F 35.4 °F 34.2 °F 69% 30.16 in 10.0 mi NW 19.6 mph - N/A   Scattered Clouds
10:55 AM 43.9 °F 37.2 °F 32.9 °F 65% 30.16 in 10.0 mi NW 13.8 mph 21.9 mph N/A   Mostly Cloudy
11:15 AM 43.9 °F 36.8 °F 32.5 °F 64% 30.16 in 10.0 mi WNW 15.0 mph 19.6 mph N/A   Mostly Cloudy
11:35 AM 44.8 °F 38.3 °F 32.2 °F 61% 30.16 in 10.0 mi West 13.8 mph 19.6 mph N/A   Overcast
11:55 AM 44.6 °F 38.1 °F 32.5 °F 63% 30.16 in 10.0 mi West 13.8 mph 17.3 mph N/A   Mostly Cloudy
12:15 PM 45.3 °F 39.3 °F 30.9 °F 57% 30.17 in 10.0 mi NW 12.7 mph 21.9 mph N/A   Mostly Cloudy
12:35 PM 45.5 °F 39.2 °F 31.8 °F 59% 30.16 in 10.0 mi NW 13.8 mph 20.7 mph N/A   Mostly Cloudy
12:55 PM 46.9 °F - 32.5 °F 57% 30.16 in 10.0 mi WNW 11.5 mph 20.7 mph N/A   Scattered Clouds
1:15 PM 47.5 °F - 31.6 °F 54% 30.16 in 10.0 mi West 4.6 mph 11.5 mph N/A   Scattered Clouds
1:35 PM 47.7 °F - 33.1 °F 57% 30.17 in 10.0 mi WNW 9.2 mph - N/A   Scattered Clouds
1:55 PM 48.6 °F - 32.9 °F 55% 30.16 in 10.0 mi West 8.1 mph 17.3 mph N/A   Scattered Clouds
2:15 PM 48.4 °F - 33.1 °F 56% 30.16 in 10.0 mi West 11.5 mph - N/A   Scattered Clouds
2:35 PM 49.3 °F - 32.4 °F 52% 30.16 in 10.0 mi WNW 10.4 mph 18.4 mph N/A   Scattered Clouds
2:55 PM 50.5 °F - 33.8 °F 53% 30.16 in 10.0 mi WNW 13.8 mph 18.4 mph N/A   Scattered Clouds
3:15 PM 50.7 °F - 33.4 °F 52% 30.16 in 10.0 mi West 11.5 mph 16.1 mph N/A   Scattered Clouds
3:35 PM 51.1 °F - 32.2 °F 48% 30.16 in 10.0 mi West 11.5 mph 16.1 mph N/A   Clear
3:55 PM 52.0 °F - 32.2 °F 47% 30.15 in 10.0 mi West 9.2 mph 17.3 mph N/A   Clear
4:15 PM 52.3 °F - 31.8 °F 46% 30.16 in 10.0 mi West 12.7 mph - N/A   Clear
4:35 PM 52.5 °F - 31.3 °F 44% 30.16 in 10.0 mi WSW 10.4 mph 18.4 mph N/A   Clear
4:55 PM 52.3 °F - 32.4 °F 47% 30.16 in 10.0 mi WSW 10.4 mph 18.4 mph N/A   Clear
5:15 PM 52.7 °F - 30.7 °F 43% 30.16 in 10.0 mi WSW 11.5 mph - N/A   Scattered Clouds
5:35 PM 52.7 °F - 31.1 °F 44% 30.16 in 10.0 mi WSW 12.7 mph - N/A   Scattered Clouds
5:55 PM 52.7 °F - 30.4 °F 42% 30.16 in 10.0 mi West 11.5 mph - N/A   Clear
6:15 PM 52.5 °F - 31.3 °F 44% 30.16 in 10.0 mi WSW 12.7 mph - N/A   Clear
6:35 PM 52.2 °F - 30.2 °F 43% 30.16 in 10.0 mi West 12.7 mph 18.4 mph N/A   Clear
6:55 PM 51.8 °F - 31.8 °F 47% 30.15 in 10.0 mi WSW 16.1 mph - N/A   Clear
7:15 PM 51.1 °F - 32.4 °F 49% 30.16 in 10.0 mi SW 10.4 mph - N/A   Clear
7:35 PM 50.2 °F - 32.9 °F 52% 30.16 in 10.0 mi SW 9.2 mph - N/A   Clear
7:55 PM 48.6 °F - 34.2 °F 58% 30.16 in 10.0 mi SW 6.9 mph - N/A   Clear
8:15 PM 48.2 °F - 33.4 °F 57% 30.16 in 10.0 mi SSW 8.1 mph - N/A   Clear
8:35 PM 47.7 °F - 33.1 °F 57% 30.17 in 10.0 mi SSW 6.9 mph - N/A   Clear
8:55 PM 46.6 °F - 34.0 °F 62% 30.17 in 10.0 mi SSW 6.9 mph - N/A   Clear
10:15 PM 45.7 °F 41.0 °F 34.2 °F 64% 30.19 in 10.0 mi SSW 9.2 mph - N/A   Clear
10:35 PM 45.7 °F 41.0 °F 34.0 °F 64% 30.19 in 10.0 mi SW 9.2 mph - N/A   Clear
10:55 PM 45.5 °F 40.3 °F 33.8 °F 64% 30.19 in 10.0 mi SW 10.4 mph - N/A   Clear
11:15 PM 45.3 °F 40.1 °F 33.8 °F 64% 30.19 in 10.0 mi SW 10.4 mph - N/A   Clear
11:35 PM 45.0 °F 39.3 °F 33.4 °F 64% 30.18 in 10.0 mi SW 11.5 mph - N/A   Clear
11:55 PM 44.8 °F 39.4 °F 33.3 °F 64% 30.17 in 10.0 mi SSW 10.4 mph - N/A   Clear